Decoded Metar for KOQT (OAK RIDGE in TN, USA) (IATA:OQT) | Meteo·Mobile Aviation Weather
aviador You're here:

KOQT Decoded Metar

OAK RIDGE in TN, USA
Report Time2018-09-21 10:53:00
UTC Time2018-09-21 11:52:05
Flight Rules vfr VFR
WindCalm
Visibility9999 m
Phenomena:N/A
Clouds:N/A
CeilingNone
Temp21°C (ISA +8)
Dew Point21°C (100% RH)
QNH1022 hPa
Density Alt1,850 ft
Elevation909 ft
Report Wrong Elevation
Raw Report
METAR KOQT 211053Z AUTO 00000KT 9SM CLR 21/21 A3019 RMK AO2 SLP207
T02110211 $=

Extra information for KOQT:More info

Metar Taf Metar & Taf Last 4 Metars F.Rules Stats Wind Profile Meteogram Temp Stats Airport Information Weather charts Add Link Nearby VenuesMetar ALERT Operation Metar Decoded Social comments

AIRNAV info for KOQT